Trenton, NJ (08638)

3:52 AM EDT en Agosto 22, 2014 (GMT -0400)
Colonial Lakelands | Change Station
CLOSE
Current Station
Estación meteorológica personal
Location: Lawrence Township, NJ
Altura: 89 ft
Estaciones meteorológicas cercanas

Alt 89 ft 40.25 °N, 74.73 °W | Updated 4 minutes ago

Overcast
Nublado
66.6 ° F
Sensación térmica 66.6 ° F
N
0.0
Viento Variable Viento desde SO

Hoy
Alta -- | Baja -- ° F
--% Posibilidad de precipitaciones
Ayer
Alta -- | Baja -- ° F
Precip. -- pul
6:16 AM 7:46 PM
Creciente menguante, 9% visible
Presión 29.99 pul
Visibilidad 10.0 Millas
Nubes Muy nublado 400 ft
Nublado 7500 ft
Punto de rocío 66 ° F
Humedad 99%
Precipitaciones 1.51 pul
Espesor de la nieve No disponible.
UV 0 de una escala de 12
Polen 9.00 de una escala de 12
Ozono Buena
PM2.5 Moderada
Flu Activity No disponible.
SPECI KTTN 220710Z AUTO 08005KT 10SM BKN004 OVC075 19/18 A2999 RMK AO2 LTG DSNT W T01940183

More Conditions Fewer Conditions

Presión 29.99 pul
Visibilidad 10.0 Millas
Nubes Muy nublado 400 ft
Nublado 7500 ft
Punto de rocío 66 ° F
Humedad 99%
Precipitaciones 1.51 pul
Espesor de la nieve No disponible.
UV 0 de una escala de 12
Polen 9.00 de una escala de 12
Ozono Buena
PM2.5 Moderada
Flu Activity No disponible.
SPECI KTTN 220710Z AUTO 08005KT 10SM BKN004 OVC075 19/18 A2999 RMK AO2 LTG DSNT W T01940183

More Conditions Fewer Conditions

10-Day Weather Forecast

Almanac

Astronomía

Aug. 22, 2014 Salida Puesta
Hora real 6:16 AM EDT 7:46 PM EDT
Crepúsculo civil 5:48 AM EDT 8:14 PM EDT
Crepúsculo náutico 5:13 AM EDT 8:48 PM EDT
Crepúsculo astronómico 4:37 AM EDT 9:25 PM EDT
Luna 3:37 AM EDT 5:53 PM EDT
Horas de luz 14h 26m
Horas de luz
13h 29m
Tomorrow will be 2m 26s shorter.
Creciente menguante, 9% of the Moon is Illuminated
Hoy
Creciente menguante
Ago 25
Nueva
Sep 2
Cuarto creciente
Sep 8
Luna llena
Sep 15
Cuarto menguante

Extremos de hoy

Máximos del estado Bajos del estado

Community

WunderPhotos

Upload Photos

1,746,131 ¡fotos cargadas!

Nearby

Calidad del aire

  Calidad del aire Índice AQ Contaminante
Ayer Moderada
PM2.5
Ayer Buena
OZONE
Real Moderada
PM2.5
Real Buena
OZONE
Viernes Moderada
PM2.5
Viernes Buena
OZONE
Sábado Buena
PM2.5
Sábado Buena
OZONE
Domingo Buena
OZONE
Domingo Buena
PM2.5

Grosos de nieve

Estación Profundido Altura
No tenemos constancia de nieve nueva.

Actividad de terremotos

Ciudad Distance Mag. Tiempo y dato
No hay informes recientes de la actividad sísmica.
Magnitud mínima muestra es 2,5.

Temperaturas de aguas costeras

Lugar Temperatura
Sandy Hook, NJ 73.9 ° F
The Battery, NY 73.0 ° F
Bergen Point West Reach, NJ 73.9 ° F
Kings Point, NY 73.0 ° F

Estaciones meteorológicas cercanas